createdAt,value
2019-03-28T00:02:19.200Z,10.53
2019-03-28T00:04:49.038Z,14.83
2019-03-28T00:07:18.337Z,14.40
2019-03-28T00:09:48.129Z,15.27
2019-03-28T00:12:17.734Z,18.40
2019-03-28T00:14:47.788Z,20.47
2019-03-28T00:17:17.333Z,16.53
2019-03-28T00:19:47.276Z,11.77
2019-03-28T00:22:27.537Z,12.63
2019-03-28T00:25:02.097Z,12.87
2019-03-28T00:27:31.659Z,12.47
2019-03-28T00:30:01.482Z,13.10
2019-03-28T00:32:30.971Z,12.43
2019-03-28T00:35:01.099Z,13.33
2019-03-28T00:37:31.007Z,13.67
2019-03-28T00:40:00.714Z,13.57
2019-03-28T00:42:30.517Z,13.90
2019-03-28T00:45:00.032Z,14.47
2019-03-28T00:47:29.629Z,14.33
2019-03-28T00:49:59.018Z,14.13
2019-03-28T00:52:28.862Z,14.47
2019-03-28T00:54:58.464Z,14.30
2019-03-28T00:57:27.850Z,15.13
2019-03-28T00:59:57.662Z,14.60
2019-03-28T01:02:27.368Z,15.50
2019-03-28T01:04:57.216Z,15.33
2019-03-28T01:07:26.785Z,16.53
2019-03-28T01:09:56.345Z,16.03
2019-03-28T01:12:27.326Z,17.37
2019-03-28T01:14:57.047Z,18.00
2019-03-28T01:17:26.755Z,16.87
2019-03-28T01:19:56.744Z,16.50
2019-03-28T01:22:26.690Z,18.27
2019-03-28T01:24:57.781Z,18.50
2019-03-28T01:27:27.840Z,17.43
2019-03-28T01:29:57.432Z,18.67
2019-03-28T01:32:27.236Z,18.00
2019-03-28T01:34:57.137Z,17.00
2019-03-28T01:37:26.596Z,16.03
2019-03-28T01:39:55.963Z,16.73
2019-03-28T01:42:25.710Z,17.47
2019-03-28T01:44:55.113Z,19.47
2019-03-28T01:47:24.787Z,18.87
2019-03-28T01:49:54.703Z,17.97
2019-03-28T01:52:24.615Z,18.00
2019-03-28T01:54:55.237Z,18.60
2019-03-28T01:57:25.600Z,17.63
2019-03-28T01:59:55.206Z,18.60
2019-03-28T02:02:24.563Z,18.70
2019-03-28T02:04:55.575Z,17.43
2019-03-28T02:07:25.225Z,17.90
2019-03-28T02:09:55.030Z,18.83
2019-03-28T02:12:24.795Z,19.13
2019-03-28T02:14:54.782Z,19.87
2019-03-28T02:17:24.381Z,19.83
2019-03-28T02:19:53.971Z,20.13
2019-03-28T02:22:23.381Z,19.77
2019-03-28T02:24:53.065Z,19.30
2019-03-28T02:27:24.373Z,19.43
2019-03-28T02:29:53.826Z,19.20
2019-03-28T02:32:23.556Z,18.50
2019-03-28T02:34:52.938Z,18.47
2019-03-28T02:37:22.542Z,20.60
2019-03-28T02:39:52.047Z,20.03
2019-03-28T02:42:21.766Z,19.97
2019-03-28T02:44:51.445Z,19.33
2019-03-28T02:47:23.323Z,19.17
2019-03-28T02:49:52.807Z,19.93
2019-03-28T02:52:22.638Z,20.13
2019-03-28T02:54:52.448Z,19.30
2019-03-28T02:57:21.925Z,19.63
2019-03-28T02:59:51.603Z,20.13
2019-03-28T03:02:21.193Z,19.43
2019-03-28T03:04:50.626Z,20.73
2019-03-28T03:07:20.217Z,20.80
2019-03-28T03:09:49.781Z,20.37
2019-03-28T03:12:19.693Z,19.40
2019-03-28T03:14:49.643Z,20.10
2019-03-28T03:17:21.233Z,21.13
2019-03-28T03:19:58.573Z,22.00
2019-03-28T03:22:29.813Z,21.40
2019-03-28T03:24:59.197Z,21.37
2019-03-28T03:27:28.920Z,21.23
2019-03-28T03:29:58.594Z,21.23
2019-03-28T03:32:28.477Z,20.03
2019-03-28T03:34:58.043Z,19.30
2019-03-28T03:37:27.851Z,21.10
2019-03-28T03:39:57.497Z,20.17
2019-03-28T03:42:27.151Z,21.97
2019-03-28T03:44:56.819Z,23.13
2019-03-28T03:47:26.849Z,23.53
2019-03-28T03:49:56.732Z,22.87
2019-03-28T03:52:26.481Z,20.70
2019-03-28T03:54:56.113Z,23.17
2019-03-28T03:57:26.018Z,23.73
2019-03-28T03:59:55.746Z,23.97
2019-03-28T04:02:25.551Z,23.40
2019-03-28T04:04:56.874Z,22.57
2019-03-28T04:07:26.396Z,23.30
2019-03-28T04:09:55.798Z,24.17
2019-03-28T04:12:25.309Z,24.47
2019-03-28T04:14:54.813Z,23.13
2019-03-28T04:17:24.645Z,24.37
2019-03-28T04:19:54.113Z,25.30
2019-03-28T04:22:24.095Z,23.93
2019-03-28T04:24:53.735Z,22.50
2019-03-28T04:27:23.431Z,23.77
2019-03-28T04:29:52.946Z,22.63
2019-03-28T04:32:22.352Z,24.60
2019-03-28T04:34:51.754Z,24.60
2019-03-28T04:37:21.352Z,25.20
2019-03-28T04:39:50.963Z,25.50
2019-03-28T04:42:23.445Z,24.00
2019-03-28T04:44:53.138Z,24.97
2019-03-28T04:47:23.434Z,26.40
2019-03-28T04:49:52.869Z,25.97
2019-03-28T04:52:22.467Z,28.00
2019-03-28T04:54:52.647Z,28.20
2019-03-28T04:57:22.197Z,28.20
2019-03-28T04:59:51.821Z,26.50
2019-03-28T05:02:21.497Z,26.97
2019-03-28T05:04:51.166Z,27.93
2019-03-28T05:07:20.747Z,29.23
2019-03-28T05:09:50.626Z,28.10
2019-03-28T05:12:22.134Z,27.97
2019-03-28T05:14:51.829Z,27.83
2019-03-28T05:17:21.230Z,27.57
2019-03-28T05:19:51.701Z,27.77
2019-03-28T05:22:22.397Z,27.77
2019-03-28T05:24:52.334Z,26.27
2019-03-28T05:27:21.895Z,27.60
2019-03-28T05:29:52.266Z,29.57
2019-03-28T05:32:21.839Z,30.13
2019-03-28T05:34:51.316Z,30.23
2019-03-28T05:37:20.993Z,29.23
2019-03-28T05:39:50.934Z,34.10
2019-03-28T05:42:20.590Z,33.63
2019-03-28T05:44:50.111Z,29.77
2019-03-28T05:47:22.089Z,30.93
2019-03-28T05:49:51.389Z,32.80
2019-03-28T05:52:20.692Z,30.53
2019-03-28T05:54:50.317Z,30.33
2019-03-28T05:57:19.733Z,30.03
2019-03-28T05:59:52.080Z,31.77
2019-03-28T06:02:25.218Z,31.57
2019-03-28T06:04:54.805Z,31.10
2019-03-28T06:07:24.738Z,31.13
2019-03-28T06:09:54.602Z,31.00
2019-03-28T06:12:24.507Z,30.00
2019-03-28T06:14:54.161Z,31.50
2019-03-28T06:17:23.929Z,31.43
2019-03-28T06:19:53.790Z,29.47
2019-03-28T06:22:23.603Z,29.90
2019-03-28T06:24:53.666Z,31.77
2019-03-28T06:27:23.379Z,29.50
2019-03-28T06:29:53.301Z,30.13
2019-03-28T06:32:22.784Z,29.80
2019-03-28T06:34:52.506Z,29.70
2019-03-28T06:37:21.908Z,32.07
2019-03-28T06:39:51.606Z,30.50
2019-03-28T06:42:21.248Z,31.10
2019-03-28T06:44:51.347Z,31.30
2019-03-28T06:47:21.248Z,30.27
2019-03-28T06:49:51.244Z,29.47
2019-03-28T06:52:21.172Z,29.67
2019-03-28T06:54:51.033Z,29.40
2019-03-28T06:57:20.711Z,28.57
2019-03-28T06:59:50.290Z,28.23
2019-03-28T07:02:21.938Z,27.67
2019-03-28T07:04:51.141Z,27.90
2019-03-28T07:07:20.662Z,28.77
2019-03-28T07:09:50.269Z,26.47
2019-03-28T07:12:19.877Z,25.80
2019-03-28T07:14:49.586Z,26.23
2019-03-28T07:17:19.242Z,24.37
2019-03-28T07:19:48.897Z,24.87
2019-03-28T07:22:18.936Z,24.17
2019-03-28T07:24:48.551Z,23.53
2019-03-28T07:27:17.969Z,23.00
2019-03-28T07:29:51.093Z,21.60
2019-03-28T07:32:18.766Z,22.43
2019-03-28T07:34:48.586Z,20.17
2019-03-28T07:37:18.087Z,20.33
2019-03-28T07:39:47.700Z,20.23
2019-03-28T07:42:17.400Z,20.83
2019-03-28T07:44:47.130Z,19.70
2019-03-28T07:47:16.652Z,19.90
2019-03-28T07:49:46.329Z,18.70
2019-03-28T07:52:16.242Z,18.63
2019-03-28T07:54:48.718Z,17.43
2019-03-28T07:57:18.107Z,16.83
2019-03-28T07:59:47.795Z,17.23
2019-03-28T08:02:17.557Z,17.50
2019-03-28T08:04:47.242Z,17.63
2019-03-28T08:07:17.034Z,17.83
2019-03-28T08:09:46.738Z,16.67
2019-03-28T08:12:22.414Z,17.73
2019-03-28T08:14:48.535Z,15.50
2019-03-28T08:17:18.038Z,17.03
2019-03-28T08:19:47.501Z,16.07
2019-03-28T08:22:17.499Z,15.67
2019-03-28T08:24:47.155Z,15.63
2019-03-28T08:27:17.304Z,15.50
2019-03-28T08:29:46.983Z,15.00
2019-03-28T08:32:19.768Z,15.13
2019-03-28T08:34:49.802Z,16.27
2019-03-28T08:37:19.448Z,16.87
2019-03-28T08:39:49.289Z,15.63
2019-03-28T08:42:19.590Z,15.30
2019-03-28T08:44:49.355Z,14.13
2019-03-28T08:47:18.944Z,14.17
2019-03-28T08:49:48.648Z,14.50
2019-03-28T08:52:18.270Z,14.53
2019-03-28T08:54:47.969Z,16.67
2019-03-28T08:57:17.551Z,14.13
2019-03-28T08:59:46.957Z,13.93
2019-03-28T09:02:16.738Z,16.00
2019-03-28T09:04:46.393Z,13.30
2019-03-28T09:07:17.361Z,12.80
2019-03-28T09:09:49.436Z,12.40
2019-03-28T09:12:19.224Z,12.90
2019-03-28T09:14:49.003Z,10.63
2019-03-28T09:17:18.586Z,10.53
2019-03-28T09:19:48.250Z,9.67
2019-03-28T09:22:18.033Z,9.63
2019-03-28T09:24:47.522Z,9.90
2019-03-28T09:27:17.357Z,10.37
2019-03-28T09:29:47.163Z,9.77
2019-03-28T09:32:16.703Z,9.47
2019-03-28T09:34:46.482Z,9.50
2019-03-28T09:37:16.284Z,9.23
2019-03-28T09:39:46.012Z,8.80
2019-03-28T09:42:15.860Z,8.53
2019-03-28T09:44:45.347Z,8.77
2019-03-28T09:47:15.169Z,7.50
2019-03-28T09:49:44.737Z,7.50
2019-03-28T09:52:14.483Z,8.27
2019-03-28T09:54:44.197Z,8.27
2019-03-28T09:57:13.747Z,8.13
2019-03-28T09:59:43.359Z,7.70
2019-03-28T10:02:12.761Z,6.97
2019-03-28T10:04:42.724Z,6.87
2019-03-28T10:07:12.454Z,7.50
2019-03-28T10:09:41.950Z,7.77
2019-03-28T10:12:11.941Z,6.83
2019-03-28T10:14:42.029Z,5.83
2019-03-28T10:17:11.752Z,6.30
2019-03-28T10:19:41.339Z,5.53
2019-03-28T10:22:11.151Z,5.27
2019-03-28T10:24:40.957Z,5.13
2019-03-28T10:27:11.409Z,6.30
2019-03-28T10:29:41.193Z,5.87
2019-03-28T10:32:10.594Z,6.03
2019-03-28T10:34:40.301Z,4.17
2019-03-28T10:37:09.686Z,4.50
2019-03-28T10:39:39.520Z,5.00
2019-03-28T10:42:09.245Z,5.03
2019-03-28T10:44:38.915Z,4.40
2019-03-28T10:47:09.092Z,5.00
2019-03-28T10:49:38.507Z,4.90
2019-03-28T10:52:07.947Z,5.10
2019-03-28T10:54:38.805Z,5.00
2019-03-28T10:57:15.368Z,5.40
2019-03-28T10:59:39.669Z,5.17
2019-03-28T11:02:09.502Z,4.40
2019-03-28T11:04:39.101Z,4.10
2019-03-28T11:07:08.999Z,4.60
2019-03-28T11:09:38.731Z,4.43
2019-03-28T11:12:08.246Z,4.57
2019-03-28T11:14:37.996Z,4.17
2019-03-28T11:17:07.844Z,4.50
2019-03-28T11:19:37.540Z,4.13
2019-03-28T11:22:07.060Z,4.70
2019-03-28T11:24:36.884Z,4.57
2019-03-28T11:27:07.271Z,3.93
2019-03-28T11:29:37.089Z,3.60
2019-03-28T11:32:06.861Z,3.90
2019-03-28T11:34:36.692Z,4.10
2019-03-28T11:37:09.620Z,4.10
2019-03-28T11:39:37.533Z,3.30
2019-03-28T11:42:07.656Z,3.80
2019-03-28T11:44:37.253Z,3.47
2019-03-28T11:47:06.961Z,3.17
2019-03-28T11:49:36.662Z,3.47
2019-03-28T11:52:06.150Z,3.73
2019-03-28T11:54:35.871Z,3.27
2019-03-28T11:57:05.561Z,3.30
2019-03-28T11:59:35.480Z,3.47
2019-03-28T12:02:19.042Z,3.40
2019-03-28T12:04:38.723Z,3.27
2019-03-28T12:07:08.012Z,3.63
2019-03-28T12:09:38.085Z,3.70
2019-03-28T12:12:09.549Z,3.17
2019-03-28T12:14:39.276Z,3.37
2019-03-28T12:17:09.005Z,3.80
2019-03-28T12:19:39.540Z,4.00
2019-03-28T12:22:09.410Z,4.70
2019-03-28T12:24:39.073Z,3.63
2019-03-28T12:27:08.755Z,4.03
2019-03-28T12:29:38.250Z,4.23
2019-03-28T12:32:13.893Z,4.00
2019-03-28T12:34:39.117Z,4.27
2019-03-28T12:37:08.628Z,4.77
2019-03-28T12:39:38.226Z,4.60
2019-03-28T12:42:07.837Z,4.97
2019-03-28T12:44:37.457Z,4.80
2019-03-28T12:47:07.408Z,5.03
2019-03-28T12:49:36.875Z,4.47
2019-03-28T12:52:06.425Z,4.60
2019-03-28T12:54:35.837Z,4.00
2019-03-28T12:57:05.627Z,4.50
2019-03-28T12:59:35.198Z,4.47
2019-03-28T13:02:05.410Z,4.27
2019-03-28T13:04:35.055Z,4.23
2019-03-28T13:07:04.489Z,4.13
2019-03-28T13:09:34.112Z,3.97
2019-03-28T13:12:03.821Z,4.20
2019-03-28T13:14:34.024Z,3.83
2019-03-28T13:17:03.398Z,3.70
2019-03-28T13:19:33.068Z,3.43
2019-03-28T13:22:02.757Z,3.60
2019-03-28T13:24:32.163Z,3.17
2019-03-28T13:27:01.761Z,3.80
2019-03-28T13:29:31.632Z,3.30
2019-03-28T13:32:01.485Z,3.67
2019-03-28T13:34:31.145Z,3.30
2019-03-28T13:37:00.679Z,3.47
2019-03-28T13:39:30.128Z,3.23
2019-03-28T13:41:59.533Z,3.53
2019-03-28T13:44:30.333Z,3.43
2019-03-28T13:47:00.799Z,3.33
2019-03-28T13:49:30.792Z,3.13
2019-03-28T13:52:00.424Z,3.93
2019-03-28T13:54:30.303Z,3.97
2019-03-28T13:57:00.004Z,3.77
2019-03-28T13:59:29.876Z,4.27
2019-03-28T14:01:59.351Z,3.87
2019-03-28T14:04:29.147Z,4.10
2019-03-28T14:06:58.753Z,4.20
2019-03-28T14:09:28.515Z,4.30
2019-03-28T14:11:58.009Z,4.63
2019-03-28T14:14:27.665Z,5.97
2019-03-28T14:16:59.143Z,4.07
2019-03-28T14:19:28.410Z,4.93
2019-03-28T14:21:58.013Z,3.80
2019-03-28T14:24:27.627Z,4.23
2019-03-28T14:26:57.254Z,4.20
2019-03-28T14:29:29.802Z,4.33
2019-03-28T14:31:59.943Z,3.87
2019-03-28T14:34:29.643Z,4.73
2019-03-28T14:36:59.036Z,4.10
2019-03-28T14:39:28.961Z,4.70
2019-03-28T14:41:58.767Z,3.90
2019-03-28T14:44:28.787Z,4.70
2019-03-28T14:46:58.442Z,3.70
2019-03-28T14:49:27.942Z,3.90
2019-03-28T14:51:58.051Z,3.03
2019-03-28T14:54:27.980Z,3.80
2019-03-28T14:56:58.819Z,3.73
2019-03-28T14:59:32.883Z,3.50
2019-03-28T15:02:01.119Z,3.47
2019-03-28T15:04:30.853Z,3.67
2019-03-28T15:07:00.362Z,3.80
2019-03-28T15:09:30.242Z,4.10
2019-03-28T15:11:59.647Z,3.90
2019-03-28T15:14:29.606Z,4.17
2019-03-28T15:16:59.549Z,3.87
2019-03-28T15:19:29.109Z,3.60
2019-03-28T15:22:00.906Z,3.70
2019-03-28T15:24:31.552Z,3.90
2019-03-28T15:27:01.573Z,3.87
2019-03-28T15:29:30.882Z,3.97
2019-03-28T15:32:00.262Z,3.97
2019-03-28T15:34:29.710Z,3.77
2019-03-28T15:36:59.453Z,4.23
2019-03-28T15:39:29.253Z,4.33
2019-03-28T15:41:58.876Z,4.50
2019-03-28T15:44:28.463Z,4.13
2019-03-28T15:46:57.925Z,4.37
2019-03-28T15:49:27.926Z,4.53
2019-03-28T15:51:58.228Z,4.83
2019-03-28T15:54:27.879Z,4.73
2019-03-28T15:56:58.724Z,5.03
2019-03-28T15:59:29.496Z,4.70
2019-03-28T16:02:00.030Z,5.33
2019-03-28T16:04:29.961Z,5.00
2019-03-28T16:06:59.832Z,5.77
2019-03-28T16:09:29.417Z,5.00
2019-03-28T16:12:02.816Z,4.50
2019-03-28T16:14:31.128Z,4.77
2019-03-28T16:17:00.795Z,5.33
2019-03-28T16:19:31.584Z,4.47
2019-03-28T16:22:04.080Z,4.00
2019-03-28T16:24:32.902Z,4.30
2019-03-28T16:27:02.168Z,5.00
2019-03-28T16:29:31.940Z,4.53
2019-03-28T16:32:01.692Z,4.23
2019-03-28T16:34:31.171Z,6.33
2019-03-28T16:37:01.728Z,5.10
2019-03-28T16:39:31.664Z,5.23
2019-03-28T16:42:01.087Z,5.33
2019-03-28T16:44:30.558Z,5.07
2019-03-28T16:47:00.262Z,4.60
2019-03-28T16:49:30.083Z,4.50
2019-03-28T16:52:00.010Z,4.80
2019-03-28T16:54:29.472Z,4.80
2019-03-28T16:56:59.534Z,5.13
2019-03-28T16:59:29.511Z,4.73
2019-03-28T17:01:59.232Z,4.87
2019-03-28T17:04:28.949Z,5.13
2019-03-28T17:06:59.634Z,6.33
2019-03-28T17:09:29.283Z,6.80
2019-03-28T17:11:58.935Z,5.90
2019-03-28T17:14:28.715Z,6.97
2019-03-28T17:16:58.151Z,6.03
2019-03-28T17:19:29.781Z,5.40
2019-03-28T17:22:20.236Z,5.00
2019-03-28T17:24:49.747Z,5.10
2019-03-28T17:27:19.475Z,6.00
2019-03-28T17:29:49.380Z,10.00
2019-03-28T17:32:18.956Z,6.57
2019-03-28T17:34:49.211Z,5.70
2019-03-28T17:37:18.927Z,5.67
2019-03-28T17:39:48.854Z,6.23
2019-03-28T17:42:18.678Z,7.00
2019-03-28T17:44:48.338Z,5.93
2019-03-28T17:47:17.960Z,5.83
2019-03-28T17:49:47.676Z,5.27
2019-03-28T17:52:17.365Z,4.60
2019-03-28T17:54:47.168Z,7.20
2019-03-28T17:57:16.985Z,5.53
2019-03-28T17:59:46.690Z,3.90
2019-03-28T18:02:16.257Z,4.23
2019-03-28T18:04:48.222Z,4.87
2019-03-28T18:07:17.432Z,9.80
2019-03-28T18:09:47.076Z,7.57
2019-03-28T18:12:16.763Z,8.53
2019-03-28T18:14:46.172Z,7.83
2019-03-28T18:17:15.901Z,7.57
2019-03-28T18:19:45.303Z,6.80
2019-03-28T18:22:15.214Z,20.40
2019-03-28T18:24:45.906Z,7.50
2019-03-28T18:27:15.513Z,8.60
2019-03-28T18:29:47.719Z,7.77
2019-03-28T18:32:17.342Z,7.60
2019-03-28T18:34:49.745Z,7.10
2019-03-28T18:37:18.737Z,5.83
2019-03-28T18:39:48.504Z,6.63
2019-03-28T18:42:18.177Z,6.43
2019-03-28T18:44:47.653Z,6.97
2019-03-28T18:47:17.862Z,7.60
2019-03-28T18:49:49.168Z,5.90
2019-03-28T18:52:18.971Z,9.60
2019-03-28T18:54:48.845Z,6.77
2019-03-28T18:57:19.891Z,6.17
2019-03-28T18:59:49.802Z,5.97
2019-03-28T19:02:19.488Z,5.17
2019-03-28T19:04:49.158Z,6.17
2019-03-28T19:07:18.596Z,5.83
2019-03-28T19:09:48.069Z,6.10
2019-03-28T19:12:18.079Z,6.00
2019-03-28T19:14:47.869Z,6.63
2019-03-28T19:17:17.840Z,5.67
2019-03-28T19:19:47.839Z,6.33
2019-03-28T19:22:17.442Z,5.93
2019-03-28T19:24:47.026Z,5.57
2019-03-28T19:27:16.684Z,5.63
2019-03-28T19:29:46.016Z,6.40
2019-03-28T19:32:15.765Z,5.60
2019-03-28T19:34:47.193Z,5.73
2019-03-28T19:37:16.915Z,6.40
2019-03-28T19:39:46.610Z,6.47
2019-03-28T19:42:17.766Z,6.20
2019-03-28T19:44:47.653Z,6.10
2019-03-28T19:47:17.514Z,5.73
2019-03-28T19:49:47.120Z,7.13
2019-03-28T19:52:16.480Z,9.87
2019-03-28T19:54:46.187Z,8.00
2019-03-28T19:57:18.537Z,7.97
2019-03-28T19:59:48.097Z,8.10
2019-03-28T20:02:17.573Z,7.90
2019-03-28T20:04:47.317Z,8.60
2019-03-28T20:07:21.797Z,6.93
2019-03-28T20:09:48.239Z,6.87
2019-03-28T20:12:17.615Z,6.03
2019-03-28T20:14:47.447Z,6.27
2019-03-28T20:17:17.812Z,7.50
2019-03-28T20:19:47.460Z,6.53
2019-03-28T20:22:18.251Z,7.37
2019-03-28T20:24:47.651Z,7.80
2019-03-28T20:27:17.312Z,8.63
2019-03-28T20:29:46.948Z,9.97
2019-03-28T20:32:16.682Z,9.17
2019-03-28T20:34:48.939Z,8.43
2019-03-28T20:37:17.610Z,9.73
2019-03-28T20:39:47.098Z,8.77
2019-03-28T20:42:16.796Z,11.00
2019-03-28T20:44:46.520Z,10.60
2019-03-28T20:47:16.132Z,9.83
2019-03-28T20:49:46.851Z,9.40
2019-03-28T20:52:16.691Z,9.30
2019-03-28T20:54:46.400Z,9.57
2019-03-28T20:57:16.289Z,10.40
2019-03-28T20:59:46.817Z,10.23
2019-03-28T21:02:16.523Z,10.23
2019-03-28T21:04:46.929Z,9.87
2019-03-28T21:07:17.975Z,9.03
2019-03-28T21:09:47.697Z,8.73
2019-03-28T21:12:17.719Z,8.67
2019-03-28T21:14:47.852Z,9.23
2019-03-28T21:17:17.434Z,9.17
2019-03-28T21:19:47.185Z,9.57
2019-03-28T21:22:16.728Z,8.33
2019-03-28T21:24:46.450Z,9.00
2019-03-28T21:27:16.179Z,8.83
2019-03-28T21:29:49.088Z,10.80
2019-03-28T21:32:16.970Z,10.53
2019-03-28T21:34:47.001Z,11.90
2019-03-28T21:37:16.929Z,11.47
2019-03-28T21:39:46.565Z,10.77
2019-03-28T21:42:16.367Z,12.27
2019-03-28T21:44:45.866Z,12.23
2019-03-28T21:47:15.295Z,11.57
2019-03-28T21:49:44.762Z,11.87
2019-03-28T21:52:14.622Z,12.67
2019-03-28T21:54:44.314Z,13.33
2019-03-28T21:57:14.779Z,13.07
2019-03-28T21:59:45.066Z,12.17
2019-03-28T22:02:14.651Z,11.20
2019-03-28T22:04:47.171Z,12.27
2019-03-28T22:07:16.967Z,11.20
2019-03-28T22:09:46.740Z,11.07
2019-03-28T22:12:16.293Z,10.27
2019-03-28T22:14:48.197Z,10.43
2019-03-28T22:17:16.916Z,10.60
2019-03-28T22:19:46.908Z,11.13
2019-03-28T22:22:16.887Z,9.30
2019-03-28T22:24:47.380Z,9.33
2019-03-28T22:27:16.959Z,10.60
2019-03-28T22:29:46.977Z,10.37
2019-03-28T22:32:18.015Z,9.23
2019-03-28T22:34:47.607Z,10.60
2019-03-28T22:37:17.325Z,9.87
2019-03-28T22:39:46.777Z,10.57
2019-03-28T22:42:16.550Z,10.50
2019-03-28T22:44:46.058Z,11.17
2019-03-28T22:47:15.462Z,10.43
2019-03-28T22:49:44.853Z,11.20
2019-03-28T22:52:14.554Z,11.20
2019-03-28T22:54:44.160Z,10.60
2019-03-28T22:57:13.848Z,9.63
2019-03-28T22:59:43.481Z,10.33
2019-03-28T23:02:13.225Z,9.97
2019-03-28T23:04:42.998Z,11.23
2019-03-28T23:07:12.597Z,10.97
2019-03-28T23:09:42.090Z,11.10
2019-03-28T23:12:14.978Z,11.57
2019-03-28T23:14:44.867Z,12.40
2019-03-28T23:17:15.031Z,13.13
2019-03-28T23:19:44.541Z,11.80
2019-03-28T23:22:14.150Z,11.97
2019-03-28T23:24:44.166Z,12.77
2019-03-28T23:27:14.371Z,12.33
2019-03-28T23:29:43.893Z,11.73
2019-03-28T23:32:13.278Z,11.23
2019-03-28T23:34:42.868Z,11.40
2019-03-28T23:37:24.194Z,11.37
2019-03-28T23:39:43.848Z,11.07
2019-03-28T23:42:14.288Z,11.00
2019-03-28T23:44:44.780Z,11.13
2019-03-28T23:47:14.267Z,10.87
2019-03-28T23:49:46.265Z,11.10
2019-03-28T23:52:16.293Z,10.93
2019-03-28T23:54:46.678Z,10.47
2019-03-28T23:57:16.299Z,10.77
2019-03-28T23:59:46.100Z,10.87
